sensor_id;sensor_type;location;lat;lon;timestamp;P1;durP1;ratioP1;P2;durP2;ratioP2
24961;SDS011;12992;50.884;13.668;2023-06-24T00:01:22;2.00;;;1.65;;
24961;SDS011;12992;50.884;13.668;2023-06-24T00:03:48;1.63;;;1.33;;
24961;SDS011;12992;50.884;13.668;2023-06-24T00:06:13;2.50;;;1.92;;
24961;SDS011;12992;50.884;13.668;2023-06-24T00:08:46;1.73;;;1.55;;
24961;SDS011;12992;50.884;13.668;2023-06-24T00:11:12;1.60;;;1.50;;
24961;SDS011;12992;50.884;13.668;2023-06-24T00:13:38;1.38;;;0.88;;
24961;SDS011;12992;50.884;13.668;2023-06-24T00:16:04;3.42;;;2.22;;
24961;SDS011;12992;50.884;13.668;2023-06-24T00:18:31;0.47;;;0.47;;
24961;SDS011;12992;50.884;13.668;2023-06-24T00:20:57;2.50;;;1.40;;
24961;SDS011;12992;50.884;13.668;2023-06-24T00:23:22;0.90;;;0.90;;
24961;SDS011;12992;50.884;13.668;2023-06-24T00:25:51;1.77;;;1.08;;
24961;SDS011;12992;50.884;13.668;2023-06-24T00:28:17;2.55;;;0.60;;
24961;SDS011;12992;50.884;13.668;2023-06-24T00:30:43;0.43;;;0.43;;
24961;SDS011;12992;50.884;13.668;2023-06-24T00:33:08;3.70;;;1.50;;
24961;SDS011;12992;50.884;13.668;2023-06-24T00:35:36;1.10;;;0.90;;
24961;SDS011;12992;50.884;13.668;2023-06-24T00:38:02;2.10;;;2.00;;
24961;SDS011;12992;50.884;13.668;2023-06-24T00:40:28;4.20;;;1.58;;
24961;SDS011;12992;50.884;13.668;2023-06-24T00:42:54;0.90;;;0.90;;
24961;SDS011;12992;50.884;13.668;2023-06-24T00:45:19;1.75;;;1.65;;
24961;SDS011;12992;50.884;13.668;2023-06-24T00:47:45;2.35;;;2.15;;
24961;SDS011;12992;50.884;13.668;2023-06-24T00:50:11;4.63;;;2.47;;
24961;SDS011;12992;50.884;13.668;2023-06-24T00:52:37;1.70;;;1.20;;
24961;SDS011;12992;50.884;13.668;2023-06-24T00:55:07;1.60;;;1.48;;
24961;SDS011;12992;50.884;13.668;2023-06-24T00:57:33;1.73;;;1.25;;
24961;SDS011;12992;50.884;13.668;2023-06-24T00:59:59;2.30;;;1.70;;
24961;SDS011;12992;50.884;13.668;2023-06-24T01:02:25;2.25;;;1.27;;
24961;SDS011;12992;50.884;13.668;2023-06-24T01:04:53;1.08;;;0.98;;
24961;SDS011;12992;50.884;13.668;2023-06-24T01:07:18;3.25;;;1.55;;
24961;SDS011;12992;50.884;13.668;2023-06-24T01:09:45;1.00;;;0.90;;
24961;SDS011;12992;50.884;13.668;2023-06-24T01:12:10;8.77;;;2.28;;
24961;SDS011;12992;50.884;13.668;2023-06-24T01:14:35;1.38;;;1.27;;
24961;SDS011;12992;50.884;13.668;2023-06-24T01:17:17;3.10;;;1.58;;
24961;SDS011;12992;50.884;13.668;2023-06-24T01:20:20;1.80;;;1.70;;
24961;SDS011;12992;50.884;13.668;2023-06-24T01:34:37;5.93;;;2.45;;
24961;SDS011;12992;50.884;13.668;2023-06-24T01:37:20;3.03;;;1.88;;
24961;SDS011;12992;50.884;13.668;2023-06-24T01:39:59;2.00;;;1.80;;
24961;SDS011;12992;50.884;13.668;2023-06-24T01:42:38;1.88;;;1.58;;
24961;SDS011;12992;50.884;13.668;2023-06-24T01:45:06;3.03;;;1.35;;
24961;SDS011;12992;50.884;13.668;2023-06-24T01:47:34;3.72;;;1.75;;
24961;SDS011;12992;50.884;13.668;2023-06-24T01:50:01;2.65;;;1.63;;
24961;SDS011;12992;50.884;13.668;2023-06-24T01:52:28;7.30;;;1.75;;
24961;SDS011;12992;50.884;13.668;2023-06-24T01:54:55;2.38;;;1.75;;
24961;SDS011;12992;50.884;13.668;2023-06-24T01:57:22;3.42;;;1.58;;
24961;SDS011;12992;50.884;13.668;2023-06-24T01:59:49;9.13;;;1.60;;
24961;SDS011;12992;50.884;13.668;2023-06-24T02:02:18;2.47;;;1.20;;
24961;SDS011;12992;50.884;13.668;2023-06-24T02:04:45;1.70;;;1.60;;
24961;SDS011;12992;50.884;13.668;2023-06-24T02:07:11;4.72;;;1.55;;
24961;SDS011;12992;50.884;13.668;2023-06-24T02:09:38;4.13;;;1.08;;
24961;SDS011;12992;50.884;13.668;2023-06-24T02:12:05;2.67;;;2.05;;
24961;SDS011;12992;50.884;13.668;2023-06-24T02:14:34;3.20;;;1.75;;
24961;SDS011;12992;50.884;13.668;2023-06-24T02:17:01;3.28;;;1.10;;
24961;SDS011;12992;50.884;13.668;2023-06-24T02:19:30;3.45;;;1.00;;
24961;SDS011;12992;50.884;13.668;2023-06-24T02:21:56;3.33;;;2.38;;
24961;SDS011;12992;50.884;13.668;2023-06-24T02:24:24;3.92;;;2.42;;
24961;SDS011;12992;50.884;13.668;2023-06-24T02:26:51;4.80;;;3.03;;
24961;SDS011;12992;50.884;13.668;2023-06-24T02:29:18;2.38;;;0.98;;
24961;SDS011;12992;50.884;13.668;2023-06-24T02:31:44;2.63;;;2.38;;
24961;SDS011;12992;50.884;13.668;2023-06-24T02:34:11;1.40;;;1.30;;
24961;SDS011;12992;50.884;13.668;2023-06-24T02:36:36;3.15;;;1.77;;
24961;SDS011;12992;50.884;13.668;2023-06-24T02:39:02;1.65;;;1.25;;
24961;SDS011;12992;50.884;13.668;2023-06-24T02:41:28;7.32;;;1.80;;
24961;SDS011;12992;50.884;13.668;2023-06-24T02:43:55;6.38;;;2.38;;
24961;SDS011;12992;50.884;13.668;2023-06-24T02:46:20;5.93;;;2.45;;
24961;SDS011;12992;50.884;13.668;2023-06-24T02:48:46;5.53;;;2.72;;
24961;SDS011;12992;50.884;13.668;2023-06-24T02:51:14;4.93;;;2.03;;
24961;SDS011;12992;50.884;13.668;2023-06-24T02:53:40;1.83;;;1.20;;
24961;SDS011;12992;50.884;13.668;2023-06-24T02:56:09;5.88;;;2.25;;
24961;SDS011;12992;50.884;13.668;2023-06-24T02:58:37;2.25;;;2.05;;
24961;SDS011;12992;50.884;13.668;2023-06-24T03:01:08;8.70;;;3.33;;
24961;SDS011;12992;50.884;13.668;2023-06-24T03:03:46;2.85;;;2.58;;
24961;SDS011;12992;50.884;13.668;2023-06-24T03:06:14;6.35;;;3.75;;
24961;SDS011;12992;50.884;13.668;2023-06-24T03:08:43;4.40;;;2.35;;
24961;SDS011;12992;50.884;13.668;2023-06-24T03:11:11;5.90;;;2.58;;
24961;SDS011;12992;50.884;13.668;2023-06-24T03:13:37;3.72;;;2.28;;
24961;SDS011;12992;50.884;13.668;2023-06-24T03:16:11;2.75;;;2.13;;
24961;SDS011;12992;50.884;13.668;2023-06-24T03:18:42;2.70;;;2.50;;
24961;SDS011;12992;50.884;13.668;2023-06-24T03:21:08;8.05;;;1.85;;
24961;SDS011;12992;50.884;13.668;2023-06-24T03:23:34;3.92;;;2.70;;
24961;SDS011;12992;50.884;13.668;2023-06-24T03:26:00;2.28;;;1.77;;
24961;SDS011;12992;50.884;13.668;2023-06-24T03:28:31;2.70;;;1.95;;
24961;SDS011;12992;50.884;13.668;2023-06-24T03:31:06;1.63;;;0.68;;
24961;SDS011;12992;50.884;13.668;2023-06-24T03:33:32;3.88;;;2.08;;
24961;SDS011;12992;50.884;13.668;2023-06-24T03:35:58;1.88;;;1.77;;
24961;SDS011;12992;50.884;13.668;2023-06-24T03:38:28;2.42;;;2.22;;
24961;SDS011;12992;50.884;13.668;2023-06-24T03:40:55;3.08;;;2.00;;
24961;SDS011;12992;50.884;13.668;2023-06-24T03:43:20;2.78;;;2.35;;
24961;SDS011;12992;50.884;13.668;2023-06-24T03:45:45;5.35;;;1.33;;
24961;SDS011;12992;50.884;13.668;2023-06-24T03:48:11;1.90;;;1.67;;
24961;SDS011;12992;50.884;13.668;2023-06-24T03:50:36;4.15;;;2.45;;
24961;SDS011;12992;50.884;13.668;2023-06-24T03:53:02;4.35;;;2.58;;
24961;SDS011;12992;50.884;13.668;2023-06-24T03:55:28;7.18;;;3.08;;
24961;SDS011;12992;50.884;13.668;2023-06-24T03:57:54;1.75;;;1.27;;
24961;SDS011;12992;50.884;13.668;2023-06-24T04:00:19;3.17;;;2.40;;
24961;SDS011;12992;50.884;13.668;2023-06-24T04:02:46;3.25;;;2.42;;
24961;SDS011;12992;50.884;13.668;2023-06-24T04:05:11;2.28;;;1.90;;
24961;SDS011;12992;50.884;13.668;2023-06-24T04:07:37;2.60;;;2.10;;
24961;SDS011;12992;50.884;13.668;2023-06-24T04:10:03;2.42;;;1.98;;
24961;SDS011;12992;50.884;13.668;2023-06-24T04:12:33;4.07;;;2.35;;
24961;SDS011;12992;50.884;13.668;2023-06-24T04:14:59;1.95;;;1.85;;
24961;SDS011;12992;50.884;13.668;2023-06-24T04:17:25;3.13;;;2.63;;
24961;SDS011;12992;50.884;13.668;2023-06-24T04:19:50;5.15;;;2.67;;
24961;SDS011;12992;50.884;13.668;2023-06-24T04:22:16;4.13;;;1.77;;
24961;SDS011;12992;50.884;13.668;2023-06-24T04:24:42;1.85;;;1.48;;
24961;SDS011;12992;50.884;13.668;2023-06-24T04:27:07;3.38;;;1.60;;
24961;SDS011;12992;50.884;13.668;2023-06-24T04:29:34;10.55;;;3.88;;
24961;SDS011;12992;50.884;13.668;2023-06-24T04:31:59;2.58;;;2.08;;
24961;SDS011;12992;50.884;13.668;2023-06-24T04:34:25;1.65;;;1.55;;
24961;SDS011;12992;50.884;13.668;2023-06-24T04:36:50;1.63;;;1.15;;
24961;SDS011;12992;50.884;13.668;2023-06-24T04:39:15;1.63;;;1.25;;
24961;SDS011;12992;50.884;13.668;2023-06-24T04:41:41;9.10;;;3.38;;
24961;SDS011;12992;50.884;13.668;2023-06-24T04:44:06;5.65;;;3.33;;
24961;SDS011;12992;50.884;13.668;2023-06-24T04:46:32;2.63;;;2.42;;
24961;SDS011;12992;50.884;13.668;2023-06-24T04:48:58;4.90;;;2.50;;
24961;SDS011;12992;50.884;13.668;2023-06-24T04:51:23;1.55;;;1.38;;
24961;SDS011;12992;50.884;13.668;2023-06-24T04:53:49;4.13;;;1.58;;
24961;SDS011;12992;50.884;13.668;2023-06-24T04:56:14;2.40;;;2.20;;
24961;SDS011;12992;50.884;13.668;2023-06-24T04:58:39;2.13;;;1.90;;
24961;SDS011;12992;50.884;13.668;2023-06-24T05:01:05;2.55;;;2.33;;
24961;SDS011;12992;50.884;13.668;2023-06-24T05:03:30;3.63;;;2.45;;
24961;SDS011;12992;50.884;13.668;2023-06-24T05:05:55;2.22;;;2.03;;
24961;SDS011;12992;50.884;13.668;2023-06-24T05:08:20;2.88;;;1.58;;
24961;SDS011;12992;50.884;13.668;2023-06-24T05:10:46;2.20;;;2.00;;
24961;SDS011;12992;50.884;13.668;2023-06-24T05:13:11;2.90;;;2.00;;
24961;SDS011;12992;50.884;13.668;2023-06-24T05:15:36;4.22;;;2.75;;
24961;SDS011;12992;50.884;13.668;2023-06-24T05:18:02;1.27;;;1.17;;
24961;SDS011;12992;50.884;13.668;2023-06-24T05:20:27;1.95;;;1.65;;
24961;SDS011;12992;50.884;13.668;2023-06-24T05:22:53;3.13;;;0.88;;
24961;SDS011;12992;50.884;13.668;2023-06-24T05:25:18;3.05;;;1.38;;
24961;SDS011;12992;50.884;13.668;2023-06-24T05:27:44;4.85;;;1.42;;
24961;SDS011;12992;50.884;13.668;2023-06-24T05:30:09;4.35;;;2.45;;
24961;SDS011;12992;50.884;13.668;2023-06-24T05:32:35;9.68;;;4.50;;
24961;SDS011;12992;50.884;13.668;2023-06-24T05:35:00;3.22;;;1.83;;
24961;SDS011;12992;50.884;13.668;2023-06-24T05:37:26;5.82;;;1.88;;
24961;SDS011;12992;50.884;13.668;2023-06-24T05:39:51;6.55;;;2.67;;
24961;SDS011;12992;50.884;13.668;2023-06-24T05:42:17;1.45;;;1.35;;
24961;SDS011;12992;50.884;13.668;2023-06-24T05:44:42;1.30;;;1.15;;
24961;SDS011;12992;50.884;13.668;2023-06-24T05:47:07;2.40;;;1.65;;
24961;SDS011;12992;50.884;13.668;2023-06-24T05:49:32;3.33;;;2.33;;
24961;SDS011;12992;50.884;13.668;2023-06-24T05:51:58;1.80;;;1.65;;
24961;SDS011;12992;50.884;13.668;2023-06-24T05:54:23;3.20;;;1.63;;
24961;SDS011;12992;50.884;13.668;2023-06-24T05:56:49;1.95;;;1.83;;
24961;SDS011;12992;50.884;13.668;2023-06-24T05:59:14;4.53;;;2.10;;
24961;SDS011;12992;50.884;13.668;2023-06-24T06:01:40;2.28;;;2.08;;
24961;SDS011;12992;50.884;13.668;2023-06-24T06:04:05;1.75;;;1.42;;
24961;SDS011;12992;50.884;13.668;2023-06-24T06:06:30;2.15;;;1.75;;
24961;SDS011;12992;50.884;13.668;2023-06-24T06:08:56;3.85;;;1.10;;
24961;SDS011;12992;50.884;13.668;2023-06-24T06:11:22;1.17;;;1.17;;
24961;SDS011;12992;50.884;13.668;2023-06-24T06:13:48;1.85;;;1.63;;
24961;SDS011;12992;50.884;13.668;2023-06-24T06:16:13;6.10;;;3.50;;
24961;SDS011;12992;50.884;13.668;2023-06-24T06:18:38;1.45;;;1.02;;
24961;SDS011;12992;50.884;13.668;2023-06-24T06:21:04;3.08;;;2.78;;
24961;SDS011;12992;50.884;13.668;2023-06-24T06:23:29;4.97;;;2.15;;
24961;SDS011;12992;50.884;13.668;2023-06-24T06:25:55;3.17;;;2.42;;
24961;SDS011;12992;50.884;13.668;2023-06-24T06:28:20;1.80;;;1.20;;
24961;SDS011;12992;50.884;13.668;2023-06-24T06:30:45;1.83;;;1.70;;
24961;SDS011;12992;50.884;13.668;2023-06-24T06:33:11;1.98;;;1.83;;
24961;SDS011;12992;50.884;13.668;2023-06-24T06:35:36;4.75;;;3.17;;
24961;SDS011;12992;50.884;13.668;2023-06-24T06:38:01;5.25;;;2.45;;
24961;SDS011;12992;50.884;13.668;2023-06-24T06:40:27;6.07;;;1.40;;
24961;SDS011;12992;50.884;13.668;2023-06-24T06:42:53;10.68;;;2.42;;
24961;SDS011;12992;50.884;13.668;2023-06-24T06:45:19;2.65;;;2.17;;
24961;SDS011;12992;50.884;13.668;2023-06-24T06:47:44;1.95;;;1.73;;
24961;SDS011;12992;50.884;13.668;2023-06-24T06:50:10;1.48;;;1.38;;
24961;SDS011;12992;50.884;13.668;2023-06-24T06:52:35;4.38;;;2.38;;
24961;SDS011;12992;50.884;13.668;2023-06-24T06:55:01;3.35;;;2.25;;
24961;SDS011;12992;50.884;13.668;2023-06-24T06:57:27;2.38;;;1.50;;
24961;SDS011;12992;50.884;13.668;2023-06-24T06:59:52;5.68;;;1.85;;
24961;SDS011;12992;50.884;13.668;2023-06-24T07:02:18;2.30;;;1.70;;
24961;SDS011;12992;50.884;13.668;2023-06-24T07:04:43;3.88;;;2.40;;
24961;SDS011;12992;50.884;13.668;2023-06-24T07:07:09;2.25;;;1.48;;
24961;SDS011;12992;50.884;13.668;2023-06-24T07:09:34;4.13;;;1.48;;
24961;SDS011;12992;50.884;13.668;2023-06-24T07:12:00;3.10;;;1.60;;
24961;SDS011;12992;50.884;13.668;2023-06-24T07:14:25;5.57;;;3.00;;
24961;SDS011;12992;50.884;13.668;2023-06-24T07:16:50;3.17;;;1.85;;
24961;SDS011;12992;50.884;13.668;2023-06-24T07:19:16;4.50;;;1.15;;
24961;SDS011;12992;50.884;13.668;2023-06-24T07:21:41;1.48;;;1.20;;
24961;SDS011;12992;50.884;13.668;2023-06-24T07:24:07;1.45;;;1.38;;
24961;SDS011;12992;50.884;13.668;2023-06-24T07:26:32;0.68;;;0.68;;
24961;SDS011;12992;50.884;13.668;2023-06-24T07:28:57;1.38;;;1.08;;
24961;SDS011;12992;50.884;13.668;2023-06-24T07:31:25;6.22;;;2.35;;
24961;SDS011;12992;50.884;13.668;2023-06-24T07:33:51;2.05;;;1.58;;
24961;SDS011;12992;50.884;13.668;2023-06-24T07:36:16;0.90;;;0.88;;
24961;SDS011;12992;50.884;13.668;2023-06-24T07:38:42;1.95;;;1.42;;
24961;SDS011;12992;50.884;13.668;2023-06-24T07:41:07;1.00;;;1.00;;
24961;SDS011;12992;50.884;13.668;2023-06-24T07:43:33;1.67;;;1.55;;
24961;SDS011;12992;50.884;13.668;2023-06-24T07:45:58;2.10;;;1.65;;
24961;SDS011;12992;50.884;13.668;2023-06-24T07:48:23;5.38;;;1.52;;
24961;SDS011;12992;50.884;13.668;2023-06-24T07:50:49;2.05;;;1.05;;
24961;SDS011;12992;50.884;13.668;2023-06-24T07:53:14;0.65;;;0.65;;
24961;SDS011;12992;50.884;13.668;2023-06-24T07:55:39;1.55;;;1.45;;
24961;SDS011;12992;50.884;13.668;2023-06-24T07:58:05;2.60;;;1.13;;
24961;SDS011;12992;50.884;13.668;2023-06-24T08:00:30;0.77;;;0.77;;
24961;SDS011;12992;50.884;13.668;2023-06-24T08:02:57;2.03;;;1.83;;
24961;SDS011;12992;50.884;13.668;2023-06-24T08:05:22;0.20;;;0.20;;
24961;SDS011;12992;50.884;13.668;2023-06-24T08:07:50;0.88;;;0.88;;
24961;SDS011;12992;50.884;13.668;2023-06-24T08:10:15;0.70;;;0.70;;
24961;SDS011;12992;50.884;13.668;2023-06-24T08:12:41;0.88;;;0.80;;
24961;SDS011;12992;50.884;13.668;2023-06-24T08:15:06;1.58;;;0.98;;
24961;SDS011;12992;50.884;13.668;2023-06-24T08:17:32;2.22;;;1.20;;
24961;SDS011;12992;50.884;13.668;2023-06-24T08:19:57;0.77;;;0.77;;
24961;SDS011;12992;50.884;13.668;2023-06-24T08:22:23;0.20;;;0.20;;
24961;SDS011;12992;50.884;13.668;2023-06-24T08:24:48;1.60;;;1.13;;
24961;SDS011;12992;50.884;13.668;2023-06-24T08:27:13;0.77;;;0.77;;
24961;SDS011;12992;50.884;13.668;2023-06-24T08:29:39;1.08;;;1.00;;
24961;SDS011;12992;50.884;13.668;2023-06-24T08:32:04;0.40;;;0.40;;
24961;SDS011;12992;50.884;13.668;2023-06-24T08:34:32;0.45;;;0.28;;
24961;SDS011;12992;50.884;13.668;2023-06-24T08:36:57;0.43;;;0.43;;
24961;SDS011;12992;50.884;13.668;2023-06-24T08:39:22;0.38;;;0.38;;
24961;SDS011;12992;50.884;13.668;2023-06-24T08:41:48;0.73;;;0.73;;
24961;SDS011;12992;50.884;13.668;2023-06-24T08:44:14;2.67;;;0.70;;
24961;SDS011;12992;50.884;13.668;2023-06-24T08:46:39;2.08;;;0.98;;
24961;SDS011;12992;50.884;13.668;2023-06-24T08:52:08;0.70;;;0.70;;
24961;SDS011;12992;50.884;13.668;2023-06-24T08:54:38;0.10;;;0.10;;
24961;SDS011;12992;50.884;13.668;2023-06-24T08:57:05;0.68;;;0.47;;
24961;SDS011;12992;50.884;13.668;2023-06-24T08:59:36;0.20;;;0.20;;
24961;SDS011;12992;50.884;13.668;2023-06-24T09:02:01;0.55;;;0.32;;
24961;SDS011;12992;50.884;13.668;2023-06-24T09:04:27;0.22;;;0.22;;
24961;SDS011;12992;50.884;13.668;2023-06-24T09:06:52;0.50;;;0.50;;
24961;SDS011;12992;50.884;13.668;2023-06-24T09:09:18;0.20;;;0.20;;
24961;SDS011;12992;50.884;13.668;2023-06-24T09:11:50;0.60;;;0.55;;
24961;SDS011;12992;50.884;13.668;2023-06-24T09:14:26;0.63;;;0.50;;
24961;SDS011;12992;50.884;13.668;2023-06-24T09:16:55;12.10;;;1.08;;
24961;SDS011;12992;50.884;13.668;2023-06-24T09:19:25;0.10;;;0.10;;
24961;SDS011;12992;50.884;13.668;2023-06-24T09:22:03;1.45;;;0.57;;
24961;SDS011;12992;50.884;13.668;2023-06-24T09:24:33;0.45;;;0.35;;
24961;SDS011;12992;50.884;13.668;2023-06-24T09:27:00;0.47;;;0.43;;
24961;SDS011;12992;50.884;13.668;2023-06-24T09:29:32;0.22;;;0.22;;
24961;SDS011;12992;50.884;13.668;2023-06-24T09:31:58;0.13;;;0.13;;
24961;SDS011;12992;50.884;13.668;2023-06-24T09:34:25;1.02;;;0.68;;
24961;SDS011;12992;50.884;13.668;2023-06-24T09:36:52;0.10;;;0.10;;
24961;SDS011;12992;50.884;13.668;2023-06-24T09:39:19;0.10;;;0.10;;
24961;SDS011;12992;50.884;13.668;2023-06-24T09:41:53;0.47;;;0.28;;
24961;SDS011;12992;50.884;13.668;2023-06-24T09:44:19;0.20;;;0.20;;
24961;SDS011;12992;50.884;13.668;2023-06-24T09:46:44;0.20;;;0.20;;
24961;SDS011;12992;50.884;13.668;2023-06-24T09:49:09;0.15;;;0.10;;
24961;SDS011;12992;50.884;13.668;2023-06-24T09:51:38;0.83;;;0.57;;
24961;SDS011;12992;50.884;13.668;2023-06-24T09:54:05;0.47;;;0.40;;
24961;SDS011;12992;50.884;13.668;2023-06-24T09:56:32;1.00;;;0.60;;
24961;SDS011;12992;50.884;13.668;2023-06-24T09:59:01;0.10;;;0.10;;
24961;SDS011;12992;50.884;13.668;2023-06-24T10:01:30;2.17;;;0.93;;
24961;SDS011;12992;50.884;13.668;2023-06-24T10:03:57;0.52;;;0.28;;
24961;SDS011;12992;50.884;13.668;2023-06-24T10:06:24;0.43;;;0.43;;
24961;SDS011;12992;50.884;13.668;2023-06-24T10:08:50;0.90;;;0.32;;
24961;SDS011;12992;50.884;13.668;2023-06-24T10:11:16;0.55;;;0.40;;
24961;SDS011;12992;50.884;13.668;2023-06-24T10:13:41;1.10;;;0.73;;
24961;SDS011;12992;50.884;13.668;2023-06-24T10:16:06;0.53;;;0.53;;
24961;SDS011;12992;50.884;13.668;2023-06-24T10:18:38;5.15;;;0.70;;
24961;SDS011;12992;50.884;13.668;2023-06-24T10:21:05;0.55;;;0.40;;
24961;SDS011;12992;50.884;13.668;2023-06-24T10:23:33;0.98;;;0.68;;
24961;SDS011;12992;50.884;13.668;2023-06-24T10:26:07;8.23;;;1.30;;
24961;SDS011;12992;50.884;13.668;2023-06-24T10:34:20;1.10;;;0.65;;
24961;SDS011;12992;50.884;13.668;2023-06-24T10:45:01;0.40;;;0.40;;
24961;SDS011;12992;50.884;13.668;2023-06-24T10:47:43;0.80;;;0.30;;
24961;SDS011;12992;50.884;13.668;2023-06-24T10:50:19;1.02;;;0.50;;
24961;SDS011;12992;50.884;13.668;2023-06-24T10:52:46;1.70;;;1.23;;
24961;SDS011;12992;50.884;13.668;2023-06-24T10:55:13;0.32;;;0.32;;
24961;SDS011;12992;50.884;13.668;2023-06-24T10:57:42;0.38;;;0.30;;
24961;SDS011;12992;50.884;13.668;2023-06-24T11:00:08;0.30;;;0.20;;
24961;SDS011;12992;50.884;13.668;2023-06-24T11:02:33;2.15;;;0.98;;
24961;SDS011;12992;50.884;13.668;2023-06-24T11:04:59;2.47;;;0.43;;
24961;SDS011;12992;50.884;13.668;2023-06-24T11:07:26;0.65;;;0.50;;
24961;SDS011;12992;50.884;13.668;2023-06-24T11:09:58;2.27;;;1.50;;
24961;SDS011;12992;50.884;13.668;2023-06-24T11:12:26;1.08;;;0.30;;
24961;SDS011;12992;50.884;13.668;2023-06-24T11:14:56;0.85;;;0.43;;
24961;SDS011;12992;50.884;13.668;2023-06-24T11:17:23;0.10;;;0.10;;
24961;SDS011;12992;50.884;13.668;2023-06-24T11:19:48;0.85;;;0.25;;
24961;SDS011;12992;50.884;13.668;2023-06-24T11:22:13;1.85;;;0.88;;
24961;SDS011;12992;50.884;13.668;2023-06-24T11:24:39;0.40;;;0.40;;
24961;SDS011;12992;50.884;13.668;2023-06-24T11:27:07;0.40;;;0.30;;
24961;SDS011;12992;50.884;13.668;2023-06-24T11:29:33;0.20;;;0.20;;
24961;SDS011;12992;50.884;13.668;2023-06-24T11:32:00;0.20;;;0.20;;
24961;SDS011;12992;50.884;13.668;2023-06-24T11:34:26;0.15;;;0.15;;
24961;SDS011;12992;50.884;13.668;2023-06-24T11:36:51;10.05;;;0.50;;
24961;SDS011;12992;50.884;13.668;2023-06-24T11:39:35;1.23;;;0.87;;
24961;SDS011;12992;50.884;13.668;2023-06-24T11:42:00;0.10;;;0.10;;
24961;SDS011;12992;50.884;13.668;2023-06-24T11:44:26;0.85;;;0.25;;
24961;SDS011;12992;50.884;13.668;2023-06-24T11:46:51;0.73;;;0.30;;
24961;SDS011;12992;50.884;13.668;2023-06-24T11:49:17;0.80;;;0.50;;
24961;SDS011;12992;50.884;13.668;2023-06-24T11:51:47;0.30;;;0.20;;
24961;SDS011;12992;50.884;13.668;2023-06-24T11:54:15;1.42;;;0.38;;
24961;SDS011;12992;50.884;13.668;2023-06-24T11:56:48;0.40;;;0.40;;
24961;SDS011;12992;50.884;13.668;2023-06-24T11:59:16;0.13;;;0.13;;
24961;SDS011;12992;50.884;13.668;2023-06-24T12:01:43;0.13;;;0.13;;
24961;SDS011;12992;50.884;13.668;2023-06-24T12:04:10;0.47;;;0.43;;
24961;SDS011;12992;50.884;13.668;2023-06-24T12:06:36;0.60;;;0.60;;
24961;SDS011;12992;50.884;13.668;2023-06-24T12:09:01;0.83;;;0.60;;
24961;SDS011;12992;50.884;13.668;2023-06-24T12:11:27;0.65;;;0.35;;
24961;SDS011;12992;50.884;13.668;2023-06-24T12:13:52;0.73;;;0.30;;
24961;SDS011;12992;50.884;13.668;2023-06-24T12:16:18;1.23;;;0.57;;
24961;SDS011;12992;50.884;13.668;2023-06-24T12:18:43;0.17;;;0.17;;
24961;SDS011;12992;50.884;13.668;2023-06-24T12:21:08;0.93;;;0.60;;
24961;SDS011;12992;50.884;13.668;2023-06-24T12:23:34;0.30;;;0.30;;
24961;SDS011;12992;50.884;13.668;2023-06-24T12:26:00;2.23;;;0.33;;
24961;SDS011;12992;50.884;13.668;2023-06-24T12:28:25;0.20;;;0.20;;
24961;SDS011;12992;50.884;13.668;2023-06-24T12:30:50;0.40;;;0.40;;
24961;SDS011;12992;50.884;13.668;2023-06-24T12:33:16;0.32;;;0.32;;
24961;SDS011;12992;50.884;13.668;2023-06-24T12:35:44;0.70;;;0.38;;
24961;SDS011;12992;50.884;13.668;2023-06-24T12:38:09;0.40;;;0.40;;
24961;SDS011;12992;50.884;13.668;2023-06-24T12:40:34;0.33;;;0.13;;
24961;SDS011;12992;50.884;13.668;2023-06-24T12:42:59;0.63;;;0.63;;
24961;SDS011;12992;50.884;13.668;2023-06-24T12:45:25;0.30;;;0.20;;
24961;SDS011;12992;50.884;13.668;2023-06-24T12:47:51;1.45;;;0.38;;
24961;SDS011;12992;50.884;13.668;2023-06-24T12:50:17;0.38;;;0.38;;
24961;SDS011;12992;50.884;13.668;2023-06-24T12:52:42;0.68;;;0.52;;
24961;SDS011;12992;50.884;13.668;2023-06-24T12:55:07;0.30;;;0.30;;
24961;SDS011;12992;50.884;13.668;2023-06-24T12:57:33;0.00;;;0.00;;
24961;SDS011;12992;50.884;13.668;2023-06-24T12:59:58;0.23;;;0.23;;
24961;SDS011;12992;50.884;13.668;2023-06-24T13:02:23;1.20;;;0.90;;
24961;SDS011;12992;50.884;13.668;2023-06-24T13:04:49;0.30;;;0.30;;
24961;SDS011;12992;50.884;13.668;2023-06-24T13:07:14;1.03;;;0.47;;
24961;SDS011;12992;50.884;13.668;2023-06-24T13:09:39;1.00;;;0.75;;
24961;SDS011;12992;50.884;13.668;2023-06-24T13:12:05;0.20;;;0.20;;
24961;SDS011;12992;50.884;13.668;2023-06-24T13:14:30;0.15;;;0.15;;
24961;SDS011;12992;50.884;13.668;2023-06-24T13:16:56;0.65;;;0.52;;
24961;SDS011;12992;50.884;13.668;2023-06-24T13:19:21;0.50;;;0.50;;
24961;SDS011;12992;50.884;13.668;2023-06-24T13:21:46;2.67;;;1.10;;
24961;SDS011;12992;50.884;13.668;2023-06-24T13:24:12;0.32;;;0.32;;
24961;SDS011;12992;50.884;13.668;2023-06-24T13:26:37;0.52;;;0.38;;
24961;SDS011;12992;50.884;13.668;2023-06-24T13:29:03;0.90;;;0.43;;
24961;SDS011;12992;50.884;13.668;2023-06-24T13:31:28;0.32;;;0.32;;
24961;SDS011;12992;50.884;13.668;2023-06-24T13:33:54;0.55;;;0.55;;
24961;SDS011;12992;50.884;13.668;2023-06-24T13:36:27;2.42;;;0.52;;
24961;SDS011;12992;50.884;13.668;2023-06-24T13:38:57;1.00;;;0.55;;
24961;SDS011;12992;50.884;13.668;2023-06-24T13:41:23;0.90;;;0.40;;
24961;SDS011;12992;50.884;13.668;2023-06-24T13:43:49;0.20;;;0.20;;
24961;SDS011;12992;50.884;13.668;2023-06-24T13:46:15;15.20;;;0.95;;
24961;SDS011;12992;50.884;13.668;2023-06-24T13:48:40;0.50;;;0.50;;
24961;SDS011;12992;50.884;13.668;2023-06-24T13:51:08;2.47;;;1.73;;
24961;SDS011;12992;50.884;13.668;2023-06-24T13:53:33;1.10;;;0.68;;
24961;SDS011;12992;50.884;13.668;2023-06-24T13:55:58;0.15;;;0.15;;
24961;SDS011;12992;50.884;13.668;2023-06-24T13:58:23;1.00;;;0.63;;
24961;SDS011;12992;50.884;13.668;2023-06-24T14:00:49;0.10;;;0.10;;
24961;SDS011;12992;50.884;13.668;2023-06-24T14:03:14;0.35;;;0.35;;
24961;SDS011;12992;50.884;13.668;2023-06-24T14:05:39;0.25;;;0.22;;
24961;SDS011;12992;50.884;13.668;2023-06-24T14:08:05;0.45;;;0.45;;
24961;SDS011;12992;50.884;13.668;2023-06-24T14:10:30;0.10;;;0.10;;
24961;SDS011;12992;50.884;13.668;2023-06-24T14:12:55;0.98;;;0.88;;
24961;SDS011;12992;50.884;13.668;2023-06-24T14:15:21;0.50;;;0.50;;
24961;SDS011;12992;50.884;13.668;2023-06-24T14:17:46;1.42;;;0.70;;
24961;SDS011;12992;50.884;13.668;2023-06-24T14:20:11;0.35;;;0.22;;
24961;SDS011;12992;50.884;13.668;2023-06-24T14:22:37;0.30;;;0.30;;
24961;SDS011;12992;50.884;13.668;2023-06-24T14:25:02;0.80;;;0.35;;
24961;SDS011;12992;50.884;13.668;2023-06-24T14:27:27;2.40;;;1.55;;
24961;SDS011;12992;50.884;13.668;2023-06-24T14:29:53;0.52;;;0.52;;
24961;SDS011;12992;50.884;13.668;2023-06-24T14:32:18;1.65;;;0.88;;
24961;SDS011;12992;50.884;13.668;2023-06-24T14:34:43;0.73;;;0.38;;
24961;SDS011;12992;50.884;13.668;2023-06-24T14:37:09;0.30;;;0.30;;
24961;SDS011;12992;50.884;13.668;2023-06-24T14:39:34;2.38;;;1.02;;
24961;SDS011;12992;50.884;13.668;2023-06-24T14:41:59;1.17;;;0.70;;
24961;SDS011;12992;50.884;13.668;2023-06-24T14:44:25;0.52;;;0.52;;
24961;SDS011;12992;50.884;13.668;2023-06-24T14:46:50;0.40;;;0.40;;
24961;SDS011;12992;50.884;13.668;2023-06-24T14:49:15;1.85;;;0.90;;
24961;SDS011;12992;50.884;13.668;2023-06-24T14:51:42;0.32;;;0.32;;
24961;SDS011;12992;50.884;13.668;2023-06-24T14:54:07;1.10;;;0.38;;
24961;SDS011;12992;50.884;13.668;2023-06-24T14:56:33;1.00;;;0.52;;
24961;SDS011;12992;50.884;13.668;2023-06-24T14:58:58;1.60;;;0.55;;